sensor_id;sensor_type;location;lat;lon;timestamp;P1;durP1;ratioP1;P2;durP2;ratioP2
26488;SDS011;14169;43.684;10.484;2023-02-24T00:01:51;19.70;;;15.52;;
26488;SDS011;14169;43.684;10.484;2023-02-24T00:04:25;16.73;;;15.02;;
26488;SDS011;14169;43.684;10.484;2023-02-24T00:06:52;17.27;;;15.77;;
26488;SDS011;14169;43.684;10.484;2023-02-24T00:09:19;18.67;;;16.80;;
26488;SDS011;14169;43.684;10.484;2023-02-24T00:11:51;18.92;;;17.13;;
26488;SDS011;14169;43.684;10.484;2023-02-24T00:14:22;26.50;;;17.25;;
26488;SDS011;14169;43.684;10.484;2023-02-24T00:16:49;17.23;;;15.82;;
26488;SDS011;14169;43.684;10.484;2023-02-24T00:19:17;18.38;;;16.67;;
26488;SDS011;14169;43.684;10.484;2023-02-24T00:21:44;18.90;;;17.02;;
26488;SDS011;14169;43.684;10.484;2023-02-24T00:24:10;19.63;;;17.92;;
26488;SDS011;14169;43.684;10.484;2023-02-24T00:26:36;22.25;;;18.85;;
26488;SDS011;14169;43.684;10.484;2023-02-24T00:29:05;23.92;;;18.25;;
26488;SDS011;14169;43.684;10.484;2023-02-24T00:33:59;19.30;;;17.30;;
26488;SDS011;14169;43.684;10.484;2023-02-24T00:36:26;19.92;;;18.10;;
26488;SDS011;14169;43.684;10.484;2023-02-24T00:38:54;21.50;;;18.65;;
26488;SDS011;14169;43.684;10.484;2023-02-24T00:41:28;20.25;;;18.33;;
26488;SDS011;14169;43.684;10.484;2023-02-24T00:43:59;20.25;;;18.05;;
26488;SDS011;14169;43.684;10.484;2023-02-24T00:46:30;23.30;;;20.98;;
26488;SDS011;14169;43.684;10.484;2023-02-24T00:48:59;22.80;;;20.52;;
26488;SDS011;14169;43.684;10.484;2023-02-24T00:51:29;23.30;;;20.88;;
26488;SDS011;14169;43.684;10.484;2023-02-24T00:53:58;22.38;;;20.08;;
26488;SDS011;14169;43.684;10.484;2023-02-24T00:56:24;31.17;;;22.63;;
26488;SDS011;14169;43.684;10.484;2023-02-24T00:58:57;23.08;;;20.67;;
26488;SDS011;14169;43.684;10.484;2023-02-24T01:01:25;24.15;;;21.20;;
26488;SDS011;14169;43.684;10.484;2023-02-24T01:03:54;27.00;;;21.75;;
26488;SDS011;14169;43.684;10.484;2023-02-24T01:06:20;29.27;;;21.63;;
26488;SDS011;14169;43.684;10.484;2023-02-24T01:08:49;24.40;;;21.02;;
26488;SDS011;14169;43.684;10.484;2023-02-24T01:11:16;24.08;;;21.10;;
26488;SDS011;14169;43.684;10.484;2023-02-24T01:14:06;27.80;;;22.70;;
26488;SDS011;14169;43.684;10.484;2023-02-24T01:16:32;26.08;;;23.42;;
26488;SDS011;14169;43.684;10.484;2023-02-24T01:18:59;27.80;;;24.48;;
26488;SDS011;14169;43.684;10.484;2023-02-24T01:21:24;26.33;;;22.80;;
26488;SDS011;14169;43.684;10.484;2023-02-24T01:23:50;30.30;;;24.77;;
26488;SDS011;14169;43.684;10.484;2023-02-24T01:26:16;25.90;;;23.20;;
26488;SDS011;14169;43.684;10.484;2023-02-24T01:28:42;28.95;;;24.00;;
26488;SDS011;14169;43.684;10.484;2023-02-24T01:31:10;27.45;;;24.25;;
26488;SDS011;14169;43.684;10.484;2023-02-24T01:33:36;26.98;;;23.98;;
26488;SDS011;14169;43.684;10.484;2023-02-24T01:38:39;31.95;;;24.40;;
26488;SDS011;14169;43.684;10.484;2023-02-24T01:41:06;28.10;;;23.65;;
26488;SDS011;14169;43.684;10.484;2023-02-24T01:43:51;30.67;;;23.75;;
26488;SDS011;14169;43.684;10.484;2023-02-24T01:46:20;29.65;;;22.67;;
26488;SDS011;14169;43.684;10.484;2023-02-24T01:48:48;28.05;;;21.65;;
26488;SDS011;14169;43.684;10.484;2023-02-24T01:51:16;27.00;;;23.10;;
26488;SDS011;14169;43.684;10.484;2023-02-24T01:53:42;26.67;;;22.23;;
26488;SDS011;14169;43.684;10.484;2023-02-24T01:56:07;30.13;;;23.00;;
26488;SDS011;14169;43.684;10.484;2023-02-24T01:58:37;23.63;;;21.13;;
26488;SDS011;14169;43.684;10.484;2023-02-24T02:01:03;25.65;;;23.00;;
26488;SDS011;14169;43.684;10.484;2023-02-24T02:03:34;29.17;;;23.48;;
26488;SDS011;14169;43.684;10.484;2023-02-24T02:06:05;29.63;;;23.77;;
26488;SDS011;14169;43.684;10.484;2023-02-24T02:08:33;25.88;;;23.13;;
26488;SDS011;14169;43.684;10.484;2023-02-24T02:11:04;28.77;;;24.25;;
26488;SDS011;14169;43.684;10.484;2023-02-24T02:13:35;27.77;;;23.77;;
26488;SDS011;14169;43.684;10.484;2023-02-24T02:33:02;29.45;;;23.58;;
26488;SDS011;14169;43.684;10.484;2023-02-24T02:35:23;27.77;;;23.27;;
26488;SDS011;14169;43.684;10.484;2023-02-24T02:40:30;30.38;;;23.85;;
26488;SDS011;14169;43.684;10.484;2023-02-24T02:43:09;29.50;;;23.52;;
26488;SDS011;14169;43.684;10.484;2023-02-24T02:45:51;26.10;;;23.20;;
26488;SDS011;14169;43.684;10.484;2023-02-24T02:48:47;24.30;;;21.83;;
26488;SDS011;14169;43.684;10.484;2023-02-24T02:51:26;24.80;;;21.90;;
26488;SDS011;14169;43.684;10.484;2023-02-24T02:53:59;23.92;;;20.45;;
26488;SDS011;14169;43.684;10.484;2023-02-24T02:59:36;23.70;;;21.17;;
26488;SDS011;14169;43.684;10.484;2023-02-24T03:02:13;25.13;;;22.38;;
26488;SDS011;14169;43.684;10.484;2023-02-24T03:04:46;24.92;;;22.38;;
26488;SDS011;14169;43.684;10.484;2023-02-24T03:07:18;25.15;;;21.60;;
26488;SDS011;14169;43.684;10.484;2023-02-24T03:09:51;22.90;;;20.80;;
26488;SDS011;14169;43.684;10.484;2023-02-24T03:12:22;25.98;;;22.17;;
26488;SDS011;14169;43.684;10.484;2023-02-24T03:14:57;27.60;;;21.40;;
26488;SDS011;14169;43.684;10.484;2023-02-24T03:17:29;25.73;;;22.88;;
26488;SDS011;14169;43.684;10.484;2023-02-24T03:20:20;26.88;;;20.95;;
26488;SDS011;14169;43.684;10.484;2023-02-24T03:22:48;23.35;;;21.10;;
26488;SDS011;14169;43.684;10.484;2023-02-24T03:25:22;23.88;;;21.30;;
26488;SDS011;14169;43.684;10.484;2023-02-24T03:27:54;25.67;;;21.63;;
26488;SDS011;14169;43.684;10.484;2023-02-24T03:30:29;24.77;;;22.02;;
26488;SDS011;14169;43.684;10.484;2023-02-24T03:33:08;30.50;;;24.17;;
26488;SDS011;14169;43.684;10.484;2023-02-24T03:35:40;28.92;;;25.50;;
26488;SDS011;14169;43.684;10.484;2023-02-24T03:38:07;28.52;;;24.55;;
26488;SDS011;14169;43.684;10.484;2023-02-24T03:40:35;31.50;;;26.50;;
26488;SDS011;14169;43.684;10.484;2023-02-24T03:43:05;29.40;;;26.10;;
26488;SDS011;14169;43.684;10.484;2023-02-24T03:45:37;31.55;;;25.27;;
26488;SDS011;14169;43.684;10.484;2023-02-24T03:48:06;27.15;;;24.30;;
26488;SDS011;14169;43.684;10.484;2023-02-24T03:50:33;27.65;;;24.67;;
26488;SDS011;14169;43.684;10.484;2023-02-24T04:07:14;33.22;;;25.35;;
26488;SDS011;14169;43.684;10.484;2023-02-24T04:10:17;28.77;;;24.77;;
26488;SDS011;14169;43.684;10.484;2023-02-24T04:13:01;27.48;;;23.98;;
26488;SDS011;14169;43.684;10.484;2023-02-24T04:18:17;27.05;;;21.48;;
26488;SDS011;14169;43.684;10.484;2023-02-24T04:20:46;24.58;;;21.90;;
26488;SDS011;14169;43.684;10.484;2023-02-24T04:23:15;23.25;;;20.95;;
26488;SDS011;14169;43.684;10.484;2023-02-24T04:25:46;23.42;;;20.17;;
26488;SDS011;14169;43.684;10.484;2023-02-24T04:28:14;21.63;;;19.38;;
26488;SDS011;14169;43.684;10.484;2023-02-24T04:30:46;26.35;;;21.98;;
26488;SDS011;14169;43.684;10.484;2023-02-24T04:35:42;24.63;;;21.73;;
26488;SDS011;14169;43.684;10.484;2023-02-24T04:38:09;23.33;;;21.00;;
26488;SDS011;14169;43.684;10.484;2023-02-24T04:40:34;25.25;;;21.98;;
26488;SDS011;14169;43.684;10.484;2023-02-24T04:43:00;26.23;;;23.60;;
26488;SDS011;14169;43.684;10.484;2023-02-24T04:45:27;28.27;;;23.77;;
26488;SDS011;14169;43.684;10.484;2023-02-24T04:47:55;25.80;;;23.17;;
26488;SDS011;14169;43.684;10.484;2023-02-24T04:50:27;30.73;;;22.92;;
26488;SDS011;14169;43.684;10.484;2023-02-24T04:52:55;24.95;;;22.23;;
26488;SDS011;14169;43.684;10.484;2023-02-24T04:55:54;24.88;;;22.25;;
26488;SDS011;14169;43.684;10.484;2023-02-24T04:58:21;26.83;;;22.10;;
26488;SDS011;14169;43.684;10.484;2023-02-24T05:00:51;27.50;;;22.33;;
26488;SDS011;14169;43.684;10.484;2023-02-24T05:03:17;24.33;;;21.80;;
26488;SDS011;14169;43.684;10.484;2023-02-24T05:05:47;25.00;;;21.70;;
26488;SDS011;14169;43.684;10.484;2023-02-24T05:08:20;24.08;;;20.83;;
26488;SDS011;14169;43.684;10.484;2023-02-24T05:10:47;23.75;;;20.30;;
26488;SDS011;14169;43.684;10.484;2023-02-24T05:13:13;21.70;;;19.33;;
26488;SDS011;14169;43.684;10.484;2023-02-24T05:15:41;20.75;;;18.73;;
26488;SDS011;14169;43.684;10.484;2023-02-24T05:18:09;21.55;;;19.40;;
26488;SDS011;14169;43.684;10.484;2023-02-24T05:20:42;20.13;;;18.08;;
26488;SDS011;14169;43.684;10.484;2023-02-24T05:23:29;19.30;;;16.67;;
26488;SDS011;14169;43.684;10.484;2023-02-24T05:25:58;17.15;;;15.65;;
26488;SDS011;14169;43.684;10.484;2023-02-24T05:28:28;19.27;;;17.55;;
26488;SDS011;14169;43.684;10.484;2023-02-24T05:31:06;21.70;;;16.83;;
26488;SDS011;14169;43.684;10.484;2023-02-24T05:33:41;18.10;;;16.17;;
26488;SDS011;14169;43.684;10.484;2023-02-24T05:36:08;18.75;;;16.58;;
26488;SDS011;14169;43.684;10.484;2023-02-24T05:38:36;17.65;;;15.95;;
26488;SDS011;14169;43.684;10.484;2023-02-24T05:41:03;17.40;;;15.35;;
26488;SDS011;14169;43.684;10.484;2023-02-24T05:43:38;17.20;;;15.43;;
26488;SDS011;14169;43.684;10.484;2023-02-24T05:46:05;16.70;;;15.13;;
26488;SDS011;14169;43.684;10.484;2023-02-24T05:48:31;18.30;;;14.23;;
26488;SDS011;14169;43.684;10.484;2023-02-24T05:50:59;16.35;;;14.27;;
26488;SDS011;14169;43.684;10.484;2023-02-24T05:53:31;25.13;;;14.57;;
26488;SDS011;14169;43.684;10.484;2023-02-24T05:56:00;15.30;;;13.77;;
26488;SDS011;14169;43.684;10.484;2023-02-24T05:58:26;15.20;;;13.48;;
26488;SDS011;14169;43.684;10.484;2023-02-24T06:00:53;12.95;;;11.85;;
26488;SDS011;14169;43.684;10.484;2023-02-24T06:03:20;16.27;;;13.35;;
26488;SDS011;14169;43.684;10.484;2023-02-24T06:05:55;17.70;;;13.32;;
26488;SDS011;14169;43.684;10.484;2023-02-24T06:08:29;15.77;;;14.23;;
26488;SDS011;14169;43.684;10.484;2023-02-24T06:11:06;14.38;;;13.07;;
26488;SDS011;14169;43.684;10.484;2023-02-24T06:13:35;15.82;;;14.10;;
26488;SDS011;14169;43.684;10.484;2023-02-24T06:16:01;16.25;;;14.63;;
26488;SDS011;14169;43.684;10.484;2023-02-24T06:18:27;15.98;;;14.57;;
26488;SDS011;14169;43.684;10.484;2023-02-24T06:20:53;16.80;;;15.20;;
26488;SDS011;14169;43.684;10.484;2023-02-24T06:23:18;15.38;;;14.07;;
26488;SDS011;14169;43.684;10.484;2023-02-24T06:25:44;14.27;;;12.77;;
26488;SDS011;14169;43.684;10.484;2023-02-24T06:28:09;15.70;;;14.10;;
26488;SDS011;14169;43.684;10.484;2023-02-24T06:30:35;18.75;;;16.85;;
26488;SDS011;14169;43.684;10.484;2023-02-24T06:33:02;19.67;;;17.75;;
26488;SDS011;14169;43.684;10.484;2023-02-24T06:35:29;20.02;;;18.13;;
26488;SDS011;14169;43.684;10.484;2023-02-24T06:37:56;21.67;;;19.48;;
26488;SDS011;14169;43.684;10.484;2023-02-24T06:40:22;26.90;;;20.70;;
26488;SDS011;14169;43.684;10.484;2023-02-24T06:42:51;29.30;;;22.33;;
26488;SDS011;14169;43.684;10.484;2023-02-24T06:47:46;26.98;;;21.33;;
26488;SDS011;14169;43.684;10.484;2023-02-24T06:50:13;21.92;;;19.67;;
26488;SDS011;14169;43.684;10.484;2023-02-24T06:52:39;23.75;;;21.27;;
26488;SDS011;14169;43.684;10.484;2023-02-24T06:55:07;25.63;;;20.58;;
26488;SDS011;14169;43.684;10.484;2023-02-24T06:57:58;22.75;;;20.23;;
26488;SDS011;14169;43.684;10.484;2023-02-24T07:00:29;23.20;;;20.80;;
26488;SDS011;14169;43.684;10.484;2023-02-24T07:03:15;26.13;;;20.42;;
26488;SDS011;14169;43.684;10.484;2023-02-24T07:05:42;21.17;;;19.05;;
26488;SDS011;14169;43.684;10.484;2023-02-24T07:08:15;20.77;;;18.67;;
26488;SDS011;14169;43.684;10.484;2023-02-24T07:10:41;21.67;;;19.52;;
26488;SDS011;14169;43.684;10.484;2023-02-24T07:13:07;24.75;;;19.50;;
26488;SDS011;14169;43.684;10.484;2023-02-24T07:15:34;21.70;;;19.55;;
26488;SDS011;14169;43.684;10.484;2023-02-24T07:18:01;20.98;;;19.00;;
26488;SDS011;14169;43.684;10.484;2023-02-24T07:20:27;20.85;;;18.73;;
26488;SDS011;14169;43.684;10.484;2023-02-24T07:22:54;21.90;;;19.67;;
26488;SDS011;14169;43.684;10.484;2023-02-24T07:25:20;21.52;;;19.50;;
26488;SDS011;14169;43.684;10.484;2023-02-24T07:28:00;22.40;;;20.05;;
26488;SDS011;14169;43.684;10.484;2023-02-24T07:30:28;21.85;;;19.55;;
26488;SDS011;14169;43.684;10.484;2023-02-24T07:32:55;20.02;;;17.92;;
26488;SDS011;14169;43.684;10.484;2023-02-24T07:35:21;21.92;;;18.15;;
26488;SDS011;14169;43.684;10.484;2023-02-24T07:37:48;18.00;;;16.17;;
26488;SDS011;14169;43.684;10.484;2023-02-24T07:40:13;18.40;;;16.58;;
26488;SDS011;14169;43.684;10.484;2023-02-24T07:42:41;21.60;;;16.38;;
26488;SDS011;14169;43.684;10.484;2023-02-24T07:45:08;18.30;;;15.55;;
26488;SDS011;14169;43.684;10.484;2023-02-24T07:47:35;16.48;;;14.80;;
26488;SDS011;14169;43.684;10.484;2023-02-24T07:50:00;16.52;;;15.07;;
26488;SDS011;14169;43.684;10.484;2023-02-24T07:52:34;19.65;;;15.50;;
26488;SDS011;14169;43.684;10.484;2023-02-24T07:55:01;15.75;;;14.27;;
26488;SDS011;14169;43.684;10.484;2023-02-24T07:57:27;18.45;;;14.48;;
26488;SDS011;14169;43.684;10.484;2023-02-24T07:59:53;16.25;;;14.75;;
26488;SDS011;14169;43.684;10.484;2023-02-24T08:02:18;22.10;;;14.82;;
26488;SDS011;14169;43.684;10.484;2023-02-24T08:04:44;15.27;;;13.90;;
26488;SDS011;14169;43.684;10.484;2023-02-24T08:07:14;16.58;;;15.13;;
26488;SDS011;14169;43.684;10.484;2023-02-24T08:09:40;17.75;;;15.95;;
26488;SDS011;14169;43.684;10.484;2023-02-24T08:12:09;16.70;;;14.30;;
26488;SDS011;14169;43.684;10.484;2023-02-24T08:14:36;22.58;;;14.13;;
26488;SDS011;14169;43.684;10.484;2023-02-24T08:17:09;15.63;;;14.07;;
26488;SDS011;14169;43.684;10.484;2023-02-24T08:19:36;18.63;;;15.00;;
26488;SDS011;14169;43.684;10.484;2023-02-24T08:22:08;15.73;;;14.23;;
26488;SDS011;14169;43.684;10.484;2023-02-24T08:24:45;14.82;;;13.40;;
26488;SDS011;14169;43.684;10.484;2023-02-24T08:27:15;14.18;;;12.88;;
26488;SDS011;14169;43.684;10.484;2023-02-24T08:29:46;12.98;;;11.68;;
26488;SDS011;14169;43.684;10.484;2023-02-24T08:32:32;15.80;;;12.73;;
26488;SDS011;14169;43.684;10.484;2023-02-24T08:35:00;13.60;;;12.50;;
26488;SDS011;14169;43.684;10.484;2023-02-24T08:37:33;13.10;;;11.70;;
26488;SDS011;14169;43.684;10.484;2023-02-24T08:40:05;13.98;;;12.55;;
26488;SDS011;14169;43.684;10.484;2023-02-24T08:42:33;14.18;;;12.82;;
26488;SDS011;14169;43.684;10.484;2023-02-24T08:45:02;14.70;;;13.25;;
26488;SDS011;14169;43.684;10.484;2023-02-24T08:47:28;19.63;;;13.95;;
26488;SDS011;14169;43.684;10.484;2023-02-24T08:49:58;15.50;;;13.93;;
26488;SDS011;14169;43.684;10.484;2023-02-24T08:52:25;15.23;;;13.63;;
26488;SDS011;14169;43.684;10.484;2023-02-24T08:54:51;14.60;;;13.13;;
26488;SDS011;14169;43.684;10.484;2023-02-24T08:57:23;13.35;;;11.93;;
26488;SDS011;14169;43.684;10.484;2023-02-24T08:59:51;15.07;;;11.85;;
26488;SDS011;14169;43.684;10.484;2023-02-24T09:02:21;13.65;;;12.30;;
26488;SDS011;14169;43.684;10.484;2023-02-24T09:04:55;12.73;;;11.43;;
26488;SDS011;14169;43.684;10.484;2023-02-24T09:07:31;13.23;;;11.20;;
26488;SDS011;14169;43.684;10.484;2023-02-24T09:10:04;13.70;;;12.25;;
26488;SDS011;14169;43.684;10.484;2023-02-24T09:12:35;13.75;;;12.45;;
26488;SDS011;14169;43.684;10.484;2023-02-24T09:15:05;15.88;;;14.20;;
26488;SDS011;14169;43.684;10.484;2023-02-24T09:17:32;18.75;;;16.80;;
26488;SDS011;14169;43.684;10.484;2023-02-24T09:20:20;22.65;;;19.80;;
26488;SDS011;14169;43.684;10.484;2023-02-24T09:23:06;19.50;;;17.40;;
26488;SDS011;14169;43.684;10.484;2023-02-24T09:25:34;22.25;;;17.65;;
26488;SDS011;14169;43.684;10.484;2023-02-24T09:28:08;21.45;;;16.90;;
26488;SDS011;14169;43.684;10.484;2023-02-24T09:30:47;21.33;;;19.02;;
26488;SDS011;14169;43.684;10.484;2023-02-24T09:35:54;22.63;;;17.77;;
26488;SDS011;14169;43.684;10.484;2023-02-24T09:38:34;20.20;;;18.02;;
26488;SDS011;14169;43.684;10.484;2023-02-24T09:41:36;21.85;;;19.23;;
26488;SDS011;14169;43.684;10.484;2023-02-24T09:47:08;19.88;;;16.63;;
26488;SDS011;14169;43.684;10.484;2023-02-24T09:52:11;22.05;;;16.33;;
26488;SDS011;14169;43.684;10.484;2023-02-24T09:54:45;17.48;;;15.68;;
26488;SDS011;14169;43.684;10.484;2023-02-24T09:57:32;18.10;;;16.20;;
26488;SDS011;14169;43.684;10.484;2023-02-24T10:00:26;20.15;;;15.63;;
26488;SDS011;14169;43.684;10.484;2023-02-24T10:08:49;13.23;;;11.98;;
26488;SDS011;14169;43.684;10.484;2023-02-24T10:11:22;13.57;;;12.10;;
26488;SDS011;14169;43.684;10.484;2023-02-24T10:13:58;14.73;;;9.85;;
26488;SDS011;14169;43.684;10.484;2023-02-24T10:33:17;7.03;;;6.30;;
26488;SDS011;14169;43.684;10.484;2023-02-24T10:36:07;6.03;;;5.43;;
26488;SDS011;14169;43.684;10.484;2023-02-24T10:38:36;6.80;;;6.18;;
26488;SDS011;14169;43.684;10.484;2023-02-24T10:41:04;9.00;;;5.65;;
26488;SDS011;14169;43.684;10.484;2023-02-24T10:43:34;7.40;;;5.95;;
26488;SDS011;14169;43.684;10.484;2023-02-24T10:46:16;6.78;;;6.28;;
26488;SDS011;14169;43.684;10.484;2023-02-24T10:48:55;7.70;;;5.68;;
26488;SDS011;14169;43.684;10.484;2023-02-24T10:51:29;6.72;;;6.13;;
26488;SDS011;14169;43.684;10.484;2023-02-24T10:54:29;6.10;;;5.60;;
26488;SDS011;14169;43.684;10.484;2023-02-24T10:57:09;8.95;;;7.70;;
26488;SDS011;14169;43.684;10.484;2023-02-24T10:59:58;11.60;;;7.30;;
26488;SDS011;14169;43.684;10.484;2023-02-24T11:02:32;8.65;;;7.85;;
26488;SDS011;14169;43.684;10.484;2023-02-24T11:05:20;8.30;;;6.85;;
26488;SDS011;14169;43.684;10.484;2023-02-24T11:08:16;7.38;;;6.25;;
26488;SDS011;14169;43.684;10.484;2023-02-24T11:11:35;7.25;;;6.53;;
26488;SDS011;14169;43.684;10.484;2023-02-24T11:14:18;7.38;;;6.68;;
26488;SDS011;14169;43.684;10.484;2023-02-24T11:17:02;10.35;;;7.15;;
26488;SDS011;14169;43.684;10.484;2023-02-24T11:22:52;8.07;;;5.40;;
26488;SDS011;14169;43.684;10.484;2023-02-24T11:31:17;7.00;;;5.35;;
26488;SDS011;14169;43.684;10.484;2023-02-24T11:43:58;5.13;;;4.68;;
26488;SDS011;14169;43.684;10.484;2023-02-24T11:46:32;8.10;;;4.67;;
26488;SDS011;14169;43.684;10.484;2023-02-24T11:49:02;6.18;;;5.30;;
26488;SDS011;14169;43.684;10.484;2023-02-24T11:51:41;6.60;;;4.80;;
26488;SDS011;14169;43.684;10.484;2023-02-24T11:54:10;8.32;;;4.53;;
26488;SDS011;14169;43.684;10.484;2023-02-24T11:56:46;10.27;;;5.00;;
26488;SDS011;14169;43.684;10.484;2023-02-24T12:07:20;5.07;;;3.90;;
26488;SDS011;14169;43.684;10.484;2023-02-24T12:10:05;6.22;;;5.32;;
26488;SDS011;14169;43.684;10.484;2023-02-24T12:12:38;5.55;;;5.05;;
26488;SDS011;14169;43.684;10.484;2023-02-24T12:15:12;7.82;;;5.80;;
26488;SDS011;14169;43.684;10.484;2023-02-24T12:17:54;8.07;;;5.40;;
26488;SDS011;14169;43.684;10.484;2023-02-24T12:23:13;11.43;;;6.53;;
26488;SDS011;14169;43.684;10.484;2023-02-24T12:34:09;7.95;;;7.15;;
26488;SDS011;14169;43.684;10.484;2023-02-24T12:44:47;7.70;;;6.90;;
26488;SDS011;14169;43.684;10.484;2023-02-24T12:48:11;7.18;;;5.68;;
26488;SDS011;14169;43.684;10.484;2023-02-24T12:58:27;10.15;;;6.93;;
26488;SDS011;14169;43.684;10.484;2023-02-24T13:06:17;11.35;;;6.97;;
26488;SDS011;14169;43.684;10.484;2023-02-24T13:14:36;8.35;;;7.65;;
26488;SDS011;14169;43.684;10.484;2023-02-24T13:19:33;11.05;;;8.38;;
26488;SDS011;14169;43.684;10.484;2023-02-24T13:24:40;11.70;;;9.23;;
26488;SDS011;14169;43.684;10.484;2023-02-24T13:27:29;9.38;;;8.40;;
26488;SDS011;14169;43.684;10.484;2023-02-24T13:32:44;12.27;;;9.23;;
26488;SDS011;14169;43.684;10.484;2023-02-24T13:37:39;13.00;;;9.40;;
26488;SDS011;14169;43.684;10.484;2023-02-24T13:45:22;10.05;;;9.23;;
26488;SDS011;14169;43.684;10.484;2023-02-24T14:02:17;9.23;;;8.07;;
26488;SDS011;14169;43.684;10.484;2023-02-24T14:04:49;10.85;;;7.68;;
26488;SDS011;14169;43.684;10.484;2023-02-24T14:07:18;9.65;;;6.55;;
26488;SDS011;14169;43.684;10.484;2023-02-24T14:09:48;9.77;;;6.55;;
26488;SDS011;14169;43.684;10.484;2023-02-24T14:12:26;8.50;;;7.68;;
26488;SDS011;14169;43.684;10.484;2023-02-24T14:14:53;11.10;;;6.68;;
26488;SDS011;14169;43.684;10.484;2023-02-24T14:19:49;7.32;;;6.63;;
26488;SDS011;14169;43.684;10.484;2023-02-24T14:22:18;8.60;;;7.78;;
26488;SDS011;14169;43.684;10.484;2023-02-24T14:24:44;5.95;;;5.35;;
26488;SDS011;14169;43.684;10.484;2023-02-24T14:27:18;7.88;;;6.03;;
26488;SDS011;14169;43.684;10.484;2023-02-24T14:29:49;7.60;;;6.05;;
26488;SDS011;14169;43.684;10.484;2023-02-24T14:32:19;6.78;;;5.93;;
26488;SDS011;14169;43.684;10.484;2023-02-24T14:34:49;6.75;;;6.00;;
26488;SDS011;14169;43.684;10.484;2023-02-24T14:37:17;6.32;;;5.72;;
26488;SDS011;14169;43.684;10.484;2023-02-24T14:39:48;6.75;;;6.05;;
26488;SDS011;14169;43.684;10.484;2023-02-24T14:42:19;11.48;;;6.40;;
26488;SDS011;14169;43.684;10.484;2023-02-24T14:44:49;7.25;;;6.20;;
26488;SDS011;14169;43.684;10.484;2023-02-24T14:47:17;7.18;;;6.47;;
26488;SDS011;14169;43.684;10.484;2023-02-24T14:49:51;8.73;;;6.05;;
26488;SDS011;14169;43.684;10.484;2023-02-24T14:57:35;9.07;;;7.70;;
26488;SDS011;14169;43.684;10.484;2023-02-24T15:00:06;7.65;;;7.00;;
26488;SDS011;14169;43.684;10.484;2023-02-24T15:02:42;11.50;;;8.15;;
26488;SDS011;14169;43.684;10.484;2023-02-24T15:05:11;9.30;;;7.95;;
26488;SDS011;14169;43.684;10.484;2023-02-24T15:07:37;9.32;;;7.28;;
26488;SDS011;14169;43.684;10.484;2023-02-24T15:10:04;8.60;;;7.78;;
26488;SDS011;14169;43.684;10.484;2023-02-24T15:12:32;10.00;;;8.55;;
26488;SDS011;14169;43.684;10.484;2023-02-24T15:17:29;9.95;;;9.07;;
26488;SDS011;14169;43.684;10.484;2023-02-24T15:19:55;9.32;;;8.52;;
26488;SDS011;14169;43.684;10.484;2023-02-24T15:24:48;9.20;;;8.32;;
26488;SDS011;14169;43.684;10.484;2023-02-24T15:29:39;10.82;;;8.95;;
26488;SDS011;14169;43.684;10.484;2023-02-24T15:32:13;10.73;;;9.73;;
26488;SDS011;14169;43.684;10.484;2023-02-24T15:34:43;10.50;;;9.23;;
26488;SDS011;14169;43.684;10.484;2023-02-24T15:39:48;12.35;;;9.77;;
26488;SDS011;14169;43.684;10.484;2023-02-24T15:44:52;9.82;;;9.00;;
26488;SDS011;14169;43.684;10.484;2023-02-24T15:47:42;11.23;;;10.13;;
26488;SDS011;14169;43.684;10.484;2023-02-24T15:50:10;10.38;;;9.38;;
26488;SDS011;14169;43.684;10.484;2023-02-24T15:52:36;11.10;;;10.00;;
26488;SDS011;14169;43.684;10.484;2023-02-24T15:55:03;10.85;;;9.57;;
26488;SDS011;14169;43.684;10.484;2023-02-24T15:57:30;12.63;;;9.88;;
26488;SDS011;14169;43.684;10.484;2023-02-24T15:59:56;13.32;;;11.95;;
26488;SDS011;14169;43.684;10.484;2023-02-24T16:02:22;15.02;;;11.80;;
26488;SDS011;14169;43.684;10.484;2023-02-24T16:04:48;12.55;;;11.48;;
26488;SDS011;14169;43.684;10.484;2023-02-24T16:07:16;12.40;;;11.13;;
26488;SDS011;14169;43.684;10.484;2023-02-24T16:09:43;12.63;;;11.27;;
26488;SDS011;14169;43.684;10.484;2023-02-24T16:12:23;13.32;;;12.00;;
26488;SDS011;14169;43.684;10.484;2023-02-24T16:14:58;20.80;;;12.05;;
26488;SDS011;14169;43.684;10.484;2023-02-24T16:19:56;14.23;;;11.95;;
26488;SDS011;14169;43.684;10.484;2023-02-24T16:22:22;11.30;;;9.88;;
26488;SDS011;14169;43.684;10.484;2023-02-24T16:24:48;11.23;;;10.02;;
26488;SDS011;14169;43.684;10.484;2023-02-24T16:27:18;11.23;;;9.60;;
26488;SDS011;14169;43.684;10.484;2023-02-24T16:29:46;12.43;;;10.40;;
26488;SDS011;14169;43.684;10.484;2023-02-24T16:32:13;13.20;;;9.25;;
26488;SDS011;14169;43.684;10.484;2023-02-24T16:34:40;11.40;;;10.30;;
26488;SDS011;14169;43.684;10.484;2023-02-24T16:37:16;10.45;;;9.48;;
26488;SDS011;14169;43.684;10.484;2023-02-24T16:39:44;10.45;;;9.13;;
26488;SDS011;14169;43.684;10.484;2023-02-24T16:42:11;11.35;;;10.13;;
26488;SDS011;14169;43.684;10.484;2023-02-24T16:44:37;11.60;;;10.02;;
26488;SDS011;14169;43.684;10.484;2023-02-24T16:47:03;12.68;;;10.60;;
26488;SDS011;14169;43.684;10.484;2023-02-24T16:49:31;17.55;;;9.77;;
26488;SDS011;14169;43.684;10.484;2023-02-24T16:51:57;10.55;;;9.50;;
26488;SDS011;14169;43.684;10.484;2023-02-24T16:54:22;10.40;;;9.30;;
26488;SDS011;14169;43.684;10.484;2023-02-24T16:56:53;14.85;;;12.00;;
26488;SDS011;14169;43.684;10.484;2023-02-24T16:59:19;21.27;;;16.15;;
26488;SDS011;14169;43.684;10.484;2023-02-24T17:01:45;30.20;;;21.33;;
26488;SDS011;14169;43.684;10.484;2023-02-24T17:04:10;46.63;;;27.90;;
26488;SDS011;14169;43.684;10.484;2023-02-24T17:06:38;49.67;;;29.17;;
26488;SDS011;14169;43.684;10.484;2023-02-24T17:09:04;56.50;;;33.28;;
26488;SDS011;14169;43.684;10.484;2023-02-24T17:11:29;56.92;;;34.20;;
26488;SDS011;14169;43.684;10.484;2023-02-24T17:13:55;36.17;;;25.25;;
26488;SDS011;14169;43.684;10.484;2023-02-24T17:16:20;22.75;;;17.83;;
26488;SDS011;14169;43.684;10.484;2023-02-24T17:18:46;17.90;;;15.88;;
26488;SDS011;14169;43.684;10.484;2023-02-24T17:21:12;16.90;;;13.70;;
26488;SDS011;14169;43.684;10.484;2023-02-24T17:23:39;15.35;;;13.18;;
26488;SDS011;14169;43.684;10.484;2023-02-24T17:26:06;18.77;;;12.80;;
26488;SDS011;14169;43.684;10.484;2023-02-24T17:28:34;16.10;;;12.15;;
26488;SDS011;14169;43.684;10.484;2023-02-24T17:30:59;16.30;;;13.90;;
26488;SDS011;14169;43.684;10.484;2023-02-24T17:33:24;14.98;;;12.95;;
26488;SDS011;14169;43.684;10.484;2023-02-24T17:35:50;16.20;;;11.93;;
26488;SDS011;14169;43.684;10.484;2023-02-24T17:38:17;13.68;;;12.45;;
26488;SDS011;14169;43.684;10.484;2023-02-24T17:40:44;13.48;;;10.95;;
26488;SDS011;14169;43.684;10.484;2023-02-24T17:43:11;13.48;;;11.52;;
26488;SDS011;14169;43.684;10.484;2023-02-24T17:45:38;19.45;;;13.57;;
26488;SDS011;14169;43.684;10.484;2023-02-24T17:48:07;17.70;;;12.70;;
26488;SDS011;14169;43.684;10.484;2023-02-24T17:50:33;13.70;;;11.65;;
26488;SDS011;14169;43.684;10.484;2023-02-24T17:52:58;14.57;;;13.00;;
26488;SDS011;14169;43.684;10.484;2023-02-24T17:55:24;12.85;;;11.45;;